ENRS/RET METAR and TAF weather

Enter ICAO airport designator
Station Type Date Time Source
ENRS METAR 2022/12/08 13:50 UTC NOAA

ENRS 081350Z 09018KT CAVOK 01/M05 Q1011


Station Type Date Time Source
ENRS Decoded METAR 2022/12/08 13:50 UTC NOAA

Rost Flyplass, Norway (ENRS) 67-31N 012-06E
Dec 08, 2022 - 08:50 AM EST / 2022.12.08 1350 UTC
Wind: from the E (090 degrees) at 21 MPH (18 KT):0
Visibility: greater than 7 mile(s):0
Temperature: 33 F (1 C)
Windchill: 21 F (-6 C):1
Dew Point: 23 F (-5 C)
Relative Humidity: 64%
Pressure (altimeter): 29.85 in. Hg (1011 hPa)
ob: ENRS 081350Z 09018KT CAVOK 01/M05 Q1011
cycle: 14

Station Type Date Time Source
ENRS TAF UTC NOAA

Error!

Example: see airport list